createdAt,value
2017-05-05T00:02:10.965Z,9.80
2017-05-05T00:04:40.017Z,9.70
2017-05-05T00:07:09.061Z,9.50
2017-05-05T00:09:38.846Z,9.80
2017-05-05T00:12:07.961Z,9.70
2017-05-05T00:14:37.741Z,9.80
2017-05-05T00:17:06.813Z,9.70
2017-05-05T00:19:35.861Z,9.70
2017-05-05T00:22:05.669Z,9.80
2017-05-05T00:24:34.700Z,9.70
2017-05-05T00:27:03.746Z,9.80
2017-05-05T00:29:32.800Z,9.90
2017-05-05T00:32:01.901Z,9.50
2017-05-05T00:34:31.129Z,9.70
2017-05-05T00:37:00.189Z,9.60
2017-05-05T00:39:29.221Z,9.60
2017-05-05T00:41:58.331Z,9.70
2017-05-05T00:44:27.378Z,9.90
2017-05-05T00:46:56.516Z,9.80
2017-05-05T00:49:25.547Z,9.80
2017-05-05T00:51:54.576Z,9.80
2017-05-05T00:54:23.649Z,9.80
2017-05-05T00:56:52.685Z,9.70
2017-05-05T00:59:21.733Z,9.80
2017-05-05T01:01:50.757Z,9.80
2017-05-05T01:04:19.883Z,9.80
2017-05-05T01:06:49.665Z,9.70
2017-05-05T01:09:18.745Z,9.80
2017-05-05T01:11:47.876Z,9.80
2017-05-05T01:14:16.927Z,9.90
2017-05-05T01:16:45.962Z,9.70
2017-05-05T01:19:15.009Z,9.90
2017-05-05T01:21:44.054Z,9.70
2017-05-05T01:24:13.182Z,9.30
2017-05-05T01:26:42.213Z,9.70
2017-05-05T01:29:11.241Z,9.40
2017-05-05T01:31:41.033Z,9.70
2017-05-05T01:34:10.069Z,9.80
2017-05-05T01:36:39.856Z,9.60
2017-05-05T01:39:08.891Z,9.70
2017-05-05T01:41:37.929Z,9.60
2017-05-05T01:44:06.970Z,9.90
2017-05-05T01:46:36.018Z,9.70
2017-05-05T01:49:05.049Z,9.80
2017-05-05T01:51:34.111Z,9.90
2017-05-05T01:54:03.146Z,9.30
2017-05-05T01:56:32.190Z,9.70
2017-05-05T01:59:01.220Z,9.80
2017-05-05T02:01:30.281Z,9.80
2017-05-05T02:03:59.315Z,9.30
2017-05-05T02:06:28.371Z,9.60
2017-05-05T02:08:57.395Z,9.60
2017-05-05T02:11:26.458Z,9.80
2017-05-05T02:13:55.484Z,9.90
2017-05-05T02:16:24.522Z,9.80
2017-05-05T02:18:53.650Z,9.70
2017-05-05T02:21:23.437Z,9.60
2017-05-05T02:23:52.481Z,9.70
2017-05-05T02:26:21.562Z,9.80
2017-05-05T02:28:51.350Z,9.80
2017-05-05T02:31:20.381Z,9.80
2017-05-05T02:33:49.554Z,9.80
2017-05-05T02:36:18.587Z,10.10
2017-05-05T02:38:47.642Z,9.70
2017-05-05T02:41:17.449Z,9.80
2017-05-05T02:43:46.549Z,9.80
2017-05-05T02:46:16.329Z,9.70
2017-05-05T02:48:45.360Z,9.60
2017-05-05T02:51:15.153Z,9.80
2017-05-05T02:53:44.185Z,9.60
2017-05-05T02:56:13.237Z,9.70
2017-05-05T02:58:42.334Z,9.80
2017-05-05T03:01:11.377Z,9.80
2017-05-05T03:03:40.410Z,9.80
2017-05-05T03:06:09.469Z,9.70
2017-05-05T03:08:38.529Z,9.80
2017-05-05T03:11:08.450Z,9.80
2017-05-05T03:13:38.233Z,9.70
2017-05-05T03:16:07.288Z,9.80
2017-05-05T03:18:36.456Z,9.70
2017-05-05T03:21:06.352Z,9.70
2017-05-05T03:23:35.395Z,9.70
2017-05-05T03:26:04.439Z,9.80
2017-05-05T03:28:33.483Z,9.90
2017-05-05T03:31:02.535Z,9.80
2017-05-05T03:33:31.579Z,9.70
2017-05-05T03:36:00.629Z,10.00
2017-05-05T03:38:30.420Z,10.10
2017-05-05T03:40:59.461Z,10.30
2017-05-05T03:43:28.530Z,10.10
2017-05-05T03:45:58.314Z,9.80
2017-05-05T03:48:27.373Z,9.70
2017-05-05T03:50:56.407Z,10.10
2017-05-05T03:53:25.484Z,9.90
2017-05-05T03:55:54.510Z,9.60
2017-05-05T03:58:24.317Z,9.90
2017-05-05T04:00:54.120Z,9.80
2017-05-05T04:03:23.154Z,9.60
2017-05-05T04:05:52.225Z,10.10
2017-05-05T04:08:22.005Z,9.90
2017-05-05T04:10:51.076Z,9.90
2017-05-05T04:13:20.132Z,9.80
2017-05-05T04:15:49.908Z,9.80
2017-05-05T04:18:18.953Z,10.00
2017-05-05T04:20:48.030Z,10.10
2017-05-05T04:23:17.071Z,10.20
2017-05-05T04:25:46.098Z,10.10
2017-05-05T04:28:15.897Z,10.10
2017-05-05T04:30:44.940Z,9.80
2017-05-05T04:33:14.100Z,9.80
2017-05-05T04:35:43.157Z,9.90
2017-05-05T04:38:12.206Z,9.60
2017-05-05T04:40:41.986Z,9.80
2017-05-05T04:43:11.082Z,10.00
2017-05-05T04:45:40.189Z,10.00
2017-05-05T04:48:09.245Z,9.90
2017-05-05T04:50:38.294Z,10.10
2017-05-05T04:53:08.093Z,9.80
2017-05-05T04:55:37.129Z,9.80
2017-05-05T04:58:06.177Z,9.80
2017-05-05T05:00:35.240Z,9.60
2017-05-05T05:03:04.369Z,9.60
2017-05-05T05:05:33.397Z,9.80
2017-05-05T05:08:02.444Z,9.90
2017-05-05T05:10:31.507Z,9.70
2017-05-05T05:13:00.539Z,9.90
2017-05-05T05:15:29.588Z,9.80
2017-05-05T05:17:58.648Z,9.80
2017-05-05T05:20:27.669Z,9.70
2017-05-05T05:22:56.705Z,9.70
2017-05-05T05:25:25.761Z,9.80
2017-05-05T05:27:54.811Z,9.70
2017-05-05T05:30:24.670Z,9.70
2017-05-05T05:32:53.700Z,10.00
2017-05-05T05:35:22.788Z,10.20
2017-05-05T05:37:51.926Z,10.10
2017-05-05T05:40:21.689Z,10.20
2017-05-05T05:42:50.842Z,10.00
2017-05-05T05:45:20.605Z,10.10
2017-05-05T05:47:49.681Z,10.10
2017-05-05T05:50:18.723Z,10.10
2017-05-05T05:52:48.516Z,10.20
2017-05-05T05:55:17.612Z,10.20
2017-05-05T05:57:46.732Z,10.10
2017-05-05T06:00:16.493Z,10.20
2017-05-05T06:02:45.549Z,10.10
2017-05-05T06:05:14.585Z,10.30
2017-05-05T06:07:43.645Z,10.00
2017-05-05T06:10:12.688Z,10.20
2017-05-05T06:12:43.362Z,10.10
2017-05-05T06:15:12.415Z,10.20
2017-05-05T06:17:41.482Z,10.20
2017-05-05T06:20:10.727Z,10.00
2017-05-05T06:22:40.533Z,9.70
2017-05-05T06:25:09.624Z,10.10
2017-05-05T06:27:39.436Z,10.00
2017-05-05T06:30:09.441Z,10.20
2017-05-05T06:32:38.478Z,10.20
2017-05-05T06:35:07.531Z,10.00
2017-05-05T06:37:36.573Z,10.10
2017-05-05T06:40:05.728Z,10.20
2017-05-05T06:42:34.776Z,10.00
2017-05-05T06:45:03.931Z,10.10
2017-05-05T06:47:33.746Z,10.20
2017-05-05T06:50:02.785Z,9.90
2017-05-05T06:52:31.838Z,9.90
2017-05-05T06:55:01.662Z,9.90
2017-05-05T06:57:30.698Z,10.20
2017-05-05T06:59:59.833Z,10.10
2017-05-05T07:02:29.421Z,10.20
2017-05-05T07:04:58.503Z,10.10
2017-05-05T07:07:27.547Z,10.00
2017-05-05T07:09:56.601Z,10.20
2017-05-05T07:12:25.637Z,10.10
2017-05-05T07:14:55.130Z,10.00
2017-05-05T07:17:24.905Z,10.20
2017-05-05T07:19:53.964Z,10.00
2017-05-05T07:22:23.744Z,10.40
2017-05-05T07:24:52.781Z,10.50
2017-05-05T07:27:21.820Z,10.60
2017-05-05T07:29:51.609Z,10.80
2017-05-05T07:32:20.641Z,10.80
2017-05-05T07:34:49.717Z,11.00
2017-05-05T07:37:19.492Z,10.80
2017-05-05T07:39:48.531Z,10.90
2017-05-05T07:42:18.347Z,10.90
2017-05-05T07:44:48.143Z,10.60
2017-05-05T07:47:17.192Z,10.40
2017-05-05T07:49:46.721Z,10.20
2017-05-05T07:52:15.793Z,10.00
2017-05-05T07:54:44.947Z,10.10
2017-05-05T07:57:14.489Z,9.80
2017-05-05T07:59:43.524Z,9.70
2017-05-05T08:02:12.586Z,10.10
2017-05-05T08:04:41.633Z,10.10
2017-05-05T08:07:11.429Z,10.20
2017-05-05T08:09:40.481Z,10.00
2017-05-05T08:12:09.570Z,10.20
2017-05-05T08:14:38.597Z,10.20
2017-05-05T08:17:07.682Z,10.20
2017-05-05T08:19:36.805Z,10.40
2017-05-05T08:22:06.645Z,10.40
2017-05-05T08:24:35.689Z,10.50
2017-05-05T08:27:04.732Z,10.50
2017-05-05T08:29:33.795Z,10.50
2017-05-05T08:32:03.621Z,10.70
2017-05-05T08:34:33.424Z,10.80
2017-05-05T08:37:03.223Z,10.80
2017-05-05T08:39:32.288Z,10.80
2017-05-05T08:42:01.429Z,10.80
2017-05-05T08:44:31.220Z,10.80
2017-05-05T08:47:00.262Z,10.80
2017-05-05T08:49:29.318Z,11.20
2017-05-05T08:51:58.366Z,11.10
2017-05-05T08:54:27.426Z,11.50
2017-05-05T08:56:57.241Z,11.20
2017-05-05T08:59:26.329Z,11.40
2017-05-05T09:01:57.026Z,11.20
2017-05-05T09:04:26.107Z,11.20
2017-05-05T09:06:55.152Z,11.20
2017-05-05T09:09:25.023Z,11.20
2017-05-05T09:11:54.168Z,11.20
2017-05-05T09:14:23.247Z,11.30
2017-05-05T09:16:53.029Z,11.70
2017-05-05T09:19:22.127Z,11.60
2017-05-05T09:21:51.183Z,11.80
2017-05-05T09:24:20.250Z,11.60
2017-05-05T09:26:50.046Z,11.30
2017-05-05T09:29:19.086Z,11.20
2017-05-05T09:31:48.170Z,11.20
2017-05-05T09:34:17.353Z,11.30
2017-05-05T09:36:47.144Z,11.20
2017-05-05T09:39:16.949Z,11.50
2017-05-05T09:41:46.017Z,11.20
2017-05-05T09:44:15.071Z,11.20
2017-05-05T09:46:44.862Z,11.20
2017-05-05T09:49:14.653Z,11.20
2017-05-05T09:51:43.779Z,11.20
2017-05-05T09:54:12.057Z,11.20
2017-05-05T09:56:41.863Z,11.20
2017-05-05T09:59:11.644Z,11.10
2017-05-05T10:01:40.730Z,11.30
2017-05-05T10:04:10.236Z,11.40
2017-05-05T10:06:40.210Z,11.60
2017-05-05T10:09:09.284Z,11.70
2017-05-05T10:11:39.077Z,11.60
2017-05-05T10:14:08.129Z,11.50
2017-05-05T10:16:37.292Z,11.60
2017-05-05T10:19:07.063Z,11.50
2017-05-05T10:21:36.141Z,11.60
2017-05-05T10:24:05.185Z,11.50
2017-05-05T10:26:34.985Z,11.60
2017-05-05T10:29:04.780Z,12.00
2017-05-05T10:31:33.841Z,12.20
2017-05-05T10:34:02.909Z,11.90
2017-05-05T10:36:31.988Z,12.00
2017-05-05T10:39:01.769Z,12.00
2017-05-05T10:41:31.666Z,12.20
2017-05-05T10:44:00.717Z,11.70
2017-05-05T10:46:29.766Z,12.20
2017-05-05T10:48:58.831Z,12.20
2017-05-05T10:51:27.874Z,11.90
2017-05-05T10:53:57.677Z,12.00
2017-05-05T10:56:26.729Z,11.90
2017-05-05T10:58:55.798Z,12.00
2017-05-05T11:01:24.852Z,12.00
2017-05-05T11:03:53.920Z,12.00
2017-05-05T11:06:22.969Z,11.70
2017-05-05T11:08:52.797Z,11.60
2017-05-05T11:11:22.300Z,11.60
2017-05-05T11:13:52.111Z,11.50
2017-05-05T11:16:21.880Z,11.30
2017-05-05T11:18:51.017Z,11.50
2017-05-05T11:21:20.932Z,11.40
2017-05-05T11:23:50.697Z,11.70
2017-05-05T11:26:19.772Z,11.70
2017-05-05T11:28:48.933Z,11.60
2017-05-05T11:31:18.746Z,11.90
2017-05-05T11:33:49.138Z,11.90
2017-05-05T11:36:18.199Z,12.00
2017-05-05T11:38:47.256Z,12.00
2017-05-05T11:41:17.078Z,12.00
2017-05-05T11:43:46.117Z,12.20
2017-05-05T11:46:15.188Z,11.60
2017-05-05T11:48:44.242Z,11.60
2017-05-05T11:51:14.052Z,11.70
2017-05-05T11:53:43.834Z,12.00
2017-05-05T11:56:12.889Z,12.00
2017-05-05T11:58:41.937Z,12.30
2017-05-05T12:01:11.065Z,12.70
2017-05-05T12:03:41.570Z,12.80
2017-05-05T12:06:12.087Z,13.00
2017-05-05T12:08:41.135Z,13.00
2017-05-05T12:11:10.193Z,13.40
2017-05-05T12:13:40.004Z,13.50
2017-05-05T12:16:09.817Z,13.90
2017-05-05T12:18:39.119Z,14.50
2017-05-05T12:21:08.920Z,15.20
2017-05-05T12:23:37.952Z,15.10
2017-05-05T12:26:07.031Z,15.00
2017-05-05T12:28:36.073Z,14.90
2017-05-05T12:31:05.153Z,15.00
2017-05-05T12:33:34.263Z,15.20
2017-05-05T12:36:03.309Z,14.80
2017-05-05T12:38:33.132Z,14.80
2017-05-05T12:41:02.905Z,15.00
2017-05-05T12:43:32.497Z,15.00
2017-05-05T12:46:01.540Z,15.30
2017-05-05T12:48:30.593Z,15.70
2017-05-05T12:50:59.705Z,15.70
2017-05-05T12:53:29.529Z,15.50
2017-05-05T12:55:59.302Z,15.00
2017-05-05T12:58:28.382Z,15.00
2017-05-05T13:00:57.437Z,14.50
2017-05-05T13:03:26.506Z,14.50
2017-05-05T13:05:55.545Z,14.00
2017-05-05T13:08:24.597Z,13.90
2017-05-05T13:10:54.409Z,13.50
2017-05-05T13:13:24.206Z,13.50
2017-05-05T13:15:53.257Z,13.40
2017-05-05T13:18:22.305Z,13.40
2017-05-05T13:20:52.117Z,13.60
2017-05-05T13:23:21.178Z,13.40
2017-05-05T13:25:50.236Z,13.40
2017-05-05T13:28:19.285Z,13.30
2017-05-05T13:30:48.339Z,13.40
2017-05-05T13:33:17.459Z,13.70
2017-05-05T13:35:46.501Z,14.00
2017-05-05T13:38:15.536Z,14.00
2017-05-05T13:40:44.590Z,14.50
2017-05-05T13:43:14.389Z,14.90
2017-05-05T13:45:43.448Z,15.10
2017-05-05T13:48:12.591Z,15.30
2017-05-05T13:50:42.381Z,15.50
2017-05-05T13:53:11.461Z,15.80
2017-05-05T13:55:40.521Z,16.10
2017-05-05T13:58:09.568Z,16.10
2017-05-05T14:00:38.646Z,15.70
2017-05-05T14:03:07.726Z,16.10
2017-05-05T14:05:36.795Z,16.20
2017-05-05T14:08:05.865Z,16.20
2017-05-05T14:10:35.698Z,15.70
2017-05-05T14:13:04.957Z,16.10
2017-05-05T14:15:34.006Z,16.10
2017-05-05T14:18:03.070Z,16.20
2017-05-05T14:20:32.134Z,16.10
2017-05-05T14:23:01.176Z,16.10
2017-05-05T14:25:30.221Z,16.10
2017-05-05T14:27:59.294Z,15.60
2017-05-05T14:30:28.693Z,15.30
2017-05-05T14:32:57.760Z,15.10
2017-05-05T14:35:26.814Z,14.40
2017-05-05T14:37:55.878Z,14.20
2017-05-05T14:40:24.925Z,14.00
2017-05-05T14:42:54.719Z,14.00
2017-05-05T14:45:24.493Z,14.10
2017-05-05T14:47:53.569Z,14.30
2017-05-05T14:50:22.605Z,14.40
2017-05-05T14:52:51.669Z,14.10
2017-05-05T14:55:20.820Z,13.90
2017-05-05T14:57:50.120Z,13.90
2017-05-05T15:00:19.893Z,13.50
2017-05-05T15:02:48.948Z,13.80
2017-05-05T15:05:17.985Z,14.10
2017-05-05T15:07:47.055Z,14.60
2017-05-05T15:10:16.657Z,14.80
2017-05-05T15:12:45.715Z,14.80
2017-05-05T15:15:15.505Z,14.60
2017-05-05T15:17:44.565Z,14.80
2017-05-05T15:20:13.635Z,14.80
2017-05-05T15:22:42.683Z,14.30
2017-05-05T15:25:11.785Z,14.00
2017-05-05T15:27:41.571Z,13.90
2017-05-05T15:30:10.644Z,13.90
2017-05-05T15:32:39.672Z,13.90
2017-05-05T15:35:08.734Z,14.20
2017-05-05T15:37:37.807Z,14.00
2017-05-05T15:40:06.885Z,14.50
2017-05-05T15:42:35.915Z,14.50
2017-05-05T15:45:04.987Z,14.40
2017-05-05T15:47:34.038Z,14.40
2017-05-05T15:50:03.087Z,14.10
2017-05-05T15:52:32.125Z,13.80
2017-05-05T15:55:01.190Z,13.90
2017-05-05T15:57:30.225Z,14.00
2017-05-05T16:02:28.856Z,14.00
2017-05-05T16:04:58.650Z,13.80
2017-05-05T16:07:27.695Z,14.00
2017-05-05T16:09:56.742Z,14.00
2017-05-05T16:12:26.529Z,13.90
2017-05-05T16:14:55.585Z,14.10
2017-05-05T16:17:24.624Z,14.30
2017-05-05T16:19:53.697Z,14.40
2017-05-05T16:22:22.725Z,14.60
2017-05-05T16:24:52.536Z,14.90
2017-05-05T16:27:21.609Z,14.90
2017-05-05T16:29:51.542Z,15.00
2017-05-05T16:32:20.582Z,14.40
2017-05-05T16:34:49.675Z,14.40
2017-05-05T16:37:18.719Z,14.30
2017-05-05T16:39:48.513Z,14.00
2017-05-05T16:42:17.595Z,13.90
2017-05-05T16:44:46.664Z,14.30
2017-05-05T16:47:15.705Z,14.30
2017-05-05T16:49:44.772Z,14.30
2017-05-05T16:52:13.822Z,14.00
2017-05-05T16:54:42.862Z,14.30
2017-05-05T16:57:11.982Z,13.90
2017-05-05T16:59:41.102Z,14.20
2017-05-05T17:02:10.145Z,14.00
2017-05-05T17:04:39.203Z,14.00
2017-05-05T17:07:08.339Z,13.70
2017-05-05T17:09:37.381Z,13.90
2017-05-05T17:12:06.446Z,13.40
2017-05-05T17:14:35.570Z,13.40
2017-05-05T17:17:04.658Z,13.40
2017-05-05T17:19:34.445Z,13.50
2017-05-05T17:22:03.538Z,13.50
2017-05-05T17:24:32.584Z,13.40
2017-05-05T17:27:01.640Z,13.50
2017-05-05T17:29:30.691Z,13.00
2017-05-05T17:31:59.808Z,13.30
2017-05-05T17:34:28.861Z,13.10
2017-05-05T17:36:57.923Z,12.90
2017-05-05T17:39:26.977Z,12.90
2017-05-05T17:41:56.074Z,12.90
2017-05-05T17:44:25.148Z,12.90
2017-05-05T17:46:54.182Z,13.10
2017-05-05T17:49:23.229Z,13.10
2017-05-05T17:51:52.302Z,13.00
2017-05-05T17:54:22.074Z,13.10
2017-05-05T17:56:51.161Z,13.10
2017-05-05T17:59:20.220Z,12.50
2017-05-05T18:01:49.250Z,12.80
2017-05-05T18:04:18.327Z,12.40
2017-05-05T18:06:47.384Z,12.10
2017-05-05T18:09:17.176Z,12.30
2017-05-05T18:11:46.221Z,12.00
2017-05-05T18:14:15.291Z,12.10
2017-05-05T18:16:44.340Z,12.00
2017-05-05T18:19:13.412Z,11.80
2017-05-05T18:21:42.495Z,11.70
2017-05-05T18:24:12.594Z,11.60
2017-05-05T18:26:41.673Z,11.50
2017-05-05T18:29:11.492Z,11.70
2017-05-05T18:31:40.557Z,11.60
2017-05-05T18:34:09.621Z,11.60
2017-05-05T18:36:38.674Z,11.60
2017-05-05T18:39:07.744Z,11.80
2017-05-05T18:41:37.541Z,11.30
2017-05-05T18:44:06.605Z,11.30
2017-05-05T18:46:35.674Z,11.30
2017-05-05T18:49:04.749Z,11.50
2017-05-05T18:51:34.547Z,11.50
2017-05-05T18:54:03.633Z,11.40
2017-05-05T18:56:32.673Z,11.30
2017-05-05T18:59:01.761Z,11.30
2017-05-05T19:01:31.544Z,11.30
2017-05-05T19:04:00.604Z,11.40
2017-05-05T19:06:29.673Z,11.20
2017-05-05T19:08:58.727Z,11.30
2017-05-05T19:11:27.802Z,11.10
2017-05-05T19:13:56.851Z,11.40
2017-05-05T19:16:25.911Z,11.30
2017-05-05T19:18:54.966Z,11.20
2017-05-05T19:21:24.057Z,11.20
2017-05-05T19:23:53.118Z,11.30
2017-05-05T19:26:22.912Z,11.10
2017-05-05T19:28:52.788Z,11.20
2017-05-05T19:31:22.028Z,11.00
2017-05-05T19:33:52.006Z,10.90
2017-05-05T19:36:21.134Z,10.90
2017-05-05T19:38:50.918Z,10.80
2017-05-05T19:41:20.009Z,10.80
2017-05-05T19:43:49.059Z,10.50
2017-05-05T19:46:18.917Z,10.50
2017-05-05T19:48:47.985Z,10.70
2017-05-05T19:51:17.035Z,10.60
2017-05-05T19:53:46.101Z,10.50
2017-05-05T19:56:15.150Z,10.40
2017-05-05T19:58:44.214Z,10.50
2017-05-05T20:01:13.365Z,10.40
2017-05-05T20:03:42.418Z,10.40
2017-05-05T20:06:12.211Z,10.60
2017-05-05T20:08:41.275Z,10.50
2017-05-05T20:11:10.324Z,10.40
2017-05-05T20:13:40.126Z,10.40
2017-05-05T20:16:09.166Z,10.20
2017-05-05T20:18:38.298Z,10.20
2017-05-05T20:21:07.326Z,10.20
2017-05-05T20:23:36.402Z,10.10
2017-05-05T20:26:06.199Z,10.00
2017-05-05T20:28:35.325Z,10.00
2017-05-05T20:31:04.352Z,10.00
2017-05-05T20:33:33.423Z,10.00
2017-05-05T20:36:02.470Z,10.10
2017-05-05T20:38:31.522Z,9.80
2017-05-05T20:41:00.638Z,9.80
2017-05-05T20:43:29.701Z,9.60
2017-05-05T20:45:58.812Z,10.10
2017-05-05T20:48:27.885Z,10.00
2017-05-05T20:50:56.965Z,9.80
2017-05-05T20:53:26.032Z,10.00
2017-05-05T20:55:55.067Z,9.80
2017-05-05T20:58:24.883Z,9.80
2017-05-05T21:00:54.665Z,9.80
2017-05-05T21:03:23.701Z,9.70
2017-05-05T21:05:52.769Z,9.80
2017-05-05T21:08:22.554Z,9.80
2017-05-05T21:10:51.698Z,9.70
2017-05-05T21:13:21.524Z,9.80
2017-05-05T21:15:50.569Z,9.80
2017-05-05T21:18:19.612Z,9.80
2017-05-05T21:20:48.657Z,9.70
2017-05-05T21:23:17.700Z,9.70
2017-05-05T21:25:46.752Z,9.50
2017-05-05T21:28:15.777Z,9.70
2017-05-05T21:30:44.956Z,9.50
2017-05-05T21:33:13.969Z,9.40
2017-05-05T21:35:43.852Z,9.80
2017-05-05T21:38:12.901Z,9.50
2017-05-05T21:40:41.934Z,9.40
2017-05-05T21:43:10.983Z,9.40
2017-05-05T21:45:40.001Z,9.40
2017-05-05T21:48:09.069Z,9.10
2017-05-05T21:50:38.110Z,9.30
2017-05-05T21:53:07.157Z,9.10
2017-05-05T21:55:36.212Z,9.10
2017-05-05T21:58:05.244Z,9.00
2017-05-05T22:00:34.285Z,8.90
2017-05-05T22:03:03.332Z,9.20
2017-05-05T22:05:32.357Z,8.90
2017-05-05T22:08:01.406Z,9.20
2017-05-05T22:10:30.427Z,9.20
2017-05-05T22:12:59.497Z,9.20
2017-05-05T22:15:28.520Z,8.90
2017-05-05T22:17:57.569Z,9.10
2017-05-05T22:20:26.612Z,8.60
2017-05-05T22:22:55.662Z,8.80
2017-05-05T22:25:24.722Z,9.00
2017-05-05T22:27:53.785Z,8.80
2017-05-05T22:30:23.028Z,8.70
2017-05-05T22:32:52.093Z,8.90
2017-05-05T22:35:21.122Z,8.60
2017-05-05T22:37:50.928Z,8.80
2017-05-05T22:40:20.717Z,8.90
2017-05-05T22:42:49.841Z,8.80
2017-05-05T22:45:18.874Z,8.80
2017-05-05T22:47:47.979Z,8.80
2017-05-05T22:50:17.038Z,8.80
2017-05-05T22:52:46.097Z,8.90
2017-05-05T22:55:15.202Z,8.80
2017-05-05T22:57:44.969Z,8.70
2017-05-05T23:00:14.023Z,8.50
2017-05-05T23:02:43.811Z,8.70
2017-05-05T23:05:12.861Z,8.60
2017-05-05T23:07:41.894Z,8.60
2017-05-05T23:10:10.970Z,8.70
2017-05-05T23:12:40.005Z,8.70
2017-05-05T23:15:09.911Z,8.60
2017-05-05T23:17:39.685Z,8.30
2017-05-05T23:20:08.759Z,8.60
2017-05-05T23:22:37.787Z,8.50
2017-05-05T23:25:06.910Z,8.40
2017-05-05T23:27:36.706Z,8.40
2017-05-05T23:30:05.737Z,8.50
2017-05-05T23:32:34.909Z,8.40
2017-05-05T23:35:04.673Z,8.30
2017-05-05T23:37:33.723Z,8.20
2017-05-05T23:40:03.496Z,8.50
2017-05-05T23:42:32.558Z,8.60
2017-05-05T23:45:01.590Z,8.10
2017-05-05T23:47:30.634Z,8.20
2017-05-05T23:49:59.665Z,8.30
2017-05-05T23:52:28.837Z,8.20
2017-05-05T23:54:57.867Z,8.20
2017-05-05T23:57:26.922Z,8.40
2017-05-05T23:59:55.961Z,8.30
